createdAt,value
2022-09-18T00:05:21.287Z,100113.31
2022-09-18T00:12:54.954Z,100112.41
2022-09-18T00:20:30.228Z,100113.31
2022-09-18T00:28:04.000Z,100124.00
2022-09-18T00:35:44.375Z,100132.00
2022-09-18T00:43:20.099Z,100133.75
2022-09-18T00:50:55.135Z,100139.06
2022-09-18T00:58:28.870Z,100137.31
2022-09-18T01:06:12.026Z,100142.63
2022-09-18T01:13:55.578Z,100140.84
2022-09-18T01:21:34.742Z,100144.38
2022-09-18T01:29:16.267Z,100137.22
2022-09-18T01:36:55.174Z,100142.53
2022-09-18T01:44:34.043Z,100150.50
2022-09-18T01:52:11.392Z,100156.75
2022-09-18T01:59:51.892Z,100169.19
2022-09-18T02:07:30.605Z,100174.53
2022-09-18T02:15:11.479Z,100164.72
2022-09-18T02:22:46.852Z,100171.88
2022-09-18T02:30:22.135Z,100182.53
2022-09-18T02:38:01.828Z,100176.34
2022-09-18T02:45:43.840Z,100185.22
2022-09-18T02:53:24.521Z,100179.88
2022-09-18T03:01:03.531Z,100185.22
2022-09-18T03:08:37.457Z,100191.47
2022-09-18T03:16:14.129Z,100199.50
2022-09-18T03:23:47.887Z,100211.09
2022-09-18T03:31:23.178Z,100211.03
2022-09-18T03:38:56.967Z,100216.38
2022-09-18T03:46:32.499Z,100223.47
2022-09-18T03:54:06.324Z,100230.56
2022-09-18T04:01:41.348Z,100249.25
2022-09-18T04:09:16.477Z,100252.75
2022-09-18T04:16:51.387Z,100249.19
2022-09-18T04:24:24.850Z,100254.53
2022-09-18T04:32:00.156Z,100253.59
2022-09-18T04:39:34.011Z,100265.97
2022-09-18T04:47:09.017Z,100273.09
2022-09-18T04:54:43.218Z,100286.38
2022-09-18T05:02:19.433Z,100280.06
2022-09-18T05:09:53.188Z,100301.41
2022-09-18T05:17:28.270Z,100288.97
2022-09-18T05:25:02.122Z,100297.91
2022-09-18T05:32:37.076Z,100298.75
2022-09-18T05:40:11.230Z,100315.66
2022-09-18T05:47:54.920Z,100326.28
2022-09-18T05:55:31.790Z,100321.84
2022-09-18T06:03:10.040Z,100330.66
2022-09-18T06:10:43.848Z,100328.78
2022-09-18T06:18:19.004Z,100333.25
2022-09-18T06:25:58.699Z,100335.03
2022-09-18T06:33:35.756Z,100333.28
2022-09-18T06:41:09.879Z,100336.09
2022-09-18T06:48:45.066Z,100346.84
2022-09-18T06:56:18.703Z,100344.28
2022-09-18T07:03:53.699Z,100356.84
2022-09-18T07:11:27.263Z,100364.03
2022-09-18T07:19:02.822Z,100360.63
2022-09-18T07:26:36.401Z,100358.94
2022-09-18T07:34:12.291Z,100362.59
2022-09-18T07:41:45.998Z,100363.59
2022-09-18T07:49:21.059Z,100369.03
2022-09-18T07:56:54.898Z,100362.06
2022-09-18T08:04:29.842Z,100364.84
2022-09-18T08:12:05.090Z,100363.09
2022-09-18T08:19:40.238Z,100357.78
2022-09-18T08:27:13.918Z,100358.75
2022-09-18T08:34:49.131Z,100364.13
2022-09-18T08:42:29.392Z,100357.00
2022-09-18T08:50:15.359Z,100357.88
2022-09-18T08:57:52.410Z,100353.44
2022-09-18T09:05:31.895Z,100359.69
2022-09-18T09:13:28.146Z,100347.13
2022-09-18T09:21:14.032Z,100339.06
2022-09-18T09:28:54.704Z,100345.25
2022-09-18T09:36:31.847Z,100345.19
2022-09-18T09:44:26.147Z,100345.09
2022-09-18T09:52:10.298Z,100339.00
2022-09-18T09:59:52.521Z,100340.00
2022-09-18T10:07:33.283Z,100346.25
2022-09-18T10:15:15.078Z,100339.09
2022-09-18T10:22:50.150Z,100339.13
2022-09-18T10:30:23.682Z,100329.28
2022-09-18T10:37:59.726Z,100327.47
2022-09-18T10:45:40.414Z,100329.28
2022-09-18T10:53:28.235Z,100317.63
2022-09-18T11:01:04.772Z,100317.53
2022-09-18T11:08:47.066Z,100312.88
2022-09-18T11:16:25.858Z,100314.47
2022-09-18T11:24:07.463Z,100331.06
2022-09-18T11:31:45.111Z,100324.84
2022-09-18T11:39:24.867Z,100309.66
2022-09-18T11:47:28.426Z,100292.72
2022-09-18T11:55:10.494Z,100273.94
2022-09-18T12:02:52.911Z,100273.88
2022-09-18T12:10:38.712Z,100268.47
2022-09-18T12:18:18.304Z,100277.53
2022-09-18T12:26:04.218Z,100287.34
2022-09-18T12:33:45.631Z,100271.25
2022-09-18T12:41:39.719Z,100272.16
2022-09-18T12:49:32.160Z,100266.81
2022-09-18T12:57:18.379Z,100242.72
2022-09-18T13:04:57.690Z,100248.06
2022-09-18T13:12:39.379Z,100273.06
2022-09-18T13:20:20.536Z,100282.88
2022-09-18T13:27:58.170Z,100271.25
2022-09-18T13:35:34.748Z,100276.63
2022-09-18T13:43:44.685Z,100266.78
2022-09-18T13:51:24.147Z,100257.00
2022-09-18T13:58:58.970Z,100254.31
2022-09-18T14:06:58.341Z,100253.41
2022-09-18T14:14:32.247Z,100256.06
2022-09-18T14:22:23.454Z,100262.34
2022-09-18T14:29:59.075Z,100250.72
2022-09-18T14:37:37.199Z,100244.47
2022-09-18T14:45:22.008Z,100251.63
2022-09-18T14:52:58.188Z,100239.09
2022-09-18T15:00:34.511Z,100252.50
2022-09-18T15:08:22.497Z,100256.13
2022-09-18T15:15:59.687Z,100234.63
2022-09-18T15:23:36.454Z,100236.41
2022-09-18T15:31:12.098Z,100230.09
2022-09-18T15:38:47.992Z,100226.53
2022-09-18T15:46:30.340Z,100214.88
2022-09-18T15:54:26.428Z,100222.91
2022-09-18T16:02:04.796Z,100214.91
2022-09-18T16:09:42.909Z,100225.59
2022-09-18T16:17:40.054Z,100223.84
2022-09-18T16:25:21.686Z,100217.59
2022-09-18T16:33:02.450Z,100212.31
2022-09-18T16:40:37.939Z,100225.72
2022-09-18T16:48:12.147Z,100219.47
2022-09-18T16:55:52.298Z,100215.03
2022-09-18T17:03:34.957Z,100217.72
2022-09-18T17:11:09.948Z,100223.06
2022-09-18T17:18:43.518Z,100222.22
2022-09-18T17:26:18.599Z,100232.00
2022-09-18T17:33:52.408Z,100226.66
2022-09-18T17:41:27.575Z,100230.22
2022-09-18T17:49:01.998Z,100239.09
2022-09-18T17:56:38.081Z,100244.44
2022-09-18T18:04:11.804Z,100248.91
2022-09-18T18:11:47.177Z,100251.50
2022-09-18T18:19:21.077Z,100255.97
2022-09-18T18:26:57.578Z,100256.88
2022-09-18T18:34:31.559Z,100243.47
2022-09-18T18:42:07.601Z,100255.06
2022-09-18T18:49:41.293Z,100255.03
2022-09-18T18:57:16.735Z,100257.69
2022-09-18T19:04:50.546Z,100265.69
2022-09-18T19:12:26.641Z,100263.00
2022-09-18T19:20:00.271Z,100258.47
2022-09-18T19:27:35.485Z,100262.91
2022-09-18T19:35:09.281Z,100265.47
2022-09-18T19:42:48.285Z,100264.56
2022-09-18T19:50:27.403Z,100262.72
2022-09-18T19:58:03.008Z,100263.63
2022-09-18T20:05:37.653Z,100263.47
2022-09-18T20:13:13.175Z,100263.53
2022-09-18T20:20:50.009Z,100266.91
2022-09-18T20:28:25.215Z,100283.88
2022-09-18T20:35:59.646Z,100269.63
2022-09-18T20:43:35.954Z,100273.94
2022-09-18T20:51:11.402Z,100276.59
2022-09-18T20:58:48.814Z,100269.38
2022-09-18T21:06:23.706Z,100273.81
2022-09-18T21:14:00.059Z,100275.56
2022-09-18T21:21:35.225Z,100272.78
2022-09-18T21:29:13.598Z,100281.72
2022-09-18T21:36:47.272Z,100273.63
2022-09-18T21:44:27.168Z,100274.53
2022-09-18T21:52:03.105Z,100271.81
2022-09-18T21:59:38.297Z,100278.06
2022-09-18T22:07:12.206Z,100279.00
2022-09-18T22:14:47.448Z,100284.34
2022-09-18T22:22:22.118Z,100280.84
2022-09-18T22:29:57.168Z,100280.00
2022-09-18T22:37:30.686Z,100281.69
2022-09-18T22:45:08.422Z,100285.25
2022-09-18T22:52:42.588Z,100286.13
2022-09-18T23:00:18.082Z,100294.13
2022-09-18T23:07:51.663Z,100294.09
2022-09-18T23:15:26.594Z,100304.75
2022-09-18T23:23:00.170Z,100307.38
2022-09-18T23:30:37.363Z,100311.84
2022-09-18T23:38:11.040Z,100307.34
2022-09-18T23:45:46.029Z,100311.81
2022-09-18T23:53:19.630Z,100315.38
